sensor_id;sensor_type;location;lat;lon;timestamp;pressure;altitude;pressure_sealevel;temperature
41940;BMP180;23057;48.554;14.454;2023-12-04T00:01:53;94023.00;;;-3.20
41940;BMP180;23057;48.554;14.454;2023-12-04T00:04:24;94011.00;;;-3.30
41940;BMP180;23057;48.554;14.454;2023-12-04T00:06:55;94007.00;;;-3.30
41940;BMP180;23057;48.554;14.454;2023-12-04T00:09:26;94008.00;;;-3.30
41940;BMP180;23057;48.554;14.454;2023-12-04T00:11:57;94006.00;;;-3.40
41940;BMP180;23057;48.554;14.454;2023-12-04T00:14:28;94002.00;;;-3.50
41940;BMP180;23057;48.554;14.454;2023-12-04T00:16:59;93988.00;;;-3.50
41940;BMP180;23057;48.554;14.454;2023-12-04T00:19:30;93995.00;;;-3.60
41940;BMP180;23057;48.554;14.454;2023-12-04T00:22:00;93986.00;;;-3.70
41940;BMP180;23057;48.554;14.454;2023-12-04T00:24:31;93985.00;;;-3.70
41940;BMP180;23057;48.554;14.454;2023-12-04T00:27:02;93984.00;;;-3.70
41940;BMP180;23057;48.554;14.454;2023-12-04T00:29:33;93982.00;;;-3.70
41940;BMP180;23057;48.554;14.454;2023-12-04T00:32:05;93983.00;;;-3.70
41940;BMP180;23057;48.554;14.454;2023-12-04T00:34:36;93980.00;;;-3.80
41940;BMP180;23057;48.554;14.454;2023-12-04T00:37:06;93968.00;;;-3.80
41940;BMP180;23057;48.554;14.454;2023-12-04T00:39:37;93975.00;;;-3.80
41940;BMP180;23057;48.554;14.454;2023-12-04T00:42:08;93977.00;;;-3.90
41940;BMP180;23057;48.554;14.454;2023-12-04T00:44:39;93995.00;;;-3.90
41940;BMP180;23057;48.554;14.454;2023-12-04T00:47:09;93994.00;;;-3.90
41940;BMP180;23057;48.554;14.454;2023-12-04T00:49:40;93996.00;;;-3.80
41940;BMP180;23057;48.554;14.454;2023-12-04T00:52:11;93991.00;;;-3.90
41940;BMP180;23057;48.554;14.454;2023-12-04T00:54:42;93994.00;;;-3.90
41940;BMP180;23057;48.554;14.454;2023-12-04T00:57:13;93989.00;;;-3.90
41940;BMP180;23057;48.554;14.454;2023-12-04T00:59:43;93995.00;;;-3.80
41940;BMP180;23057;48.554;14.454;2023-12-04T01:02:14;93992.00;;;-3.90
41940;BMP180;23057;48.554;14.454;2023-12-04T01:04:45;93992.00;;;-3.90
41940;BMP180;23057;48.554;14.454;2023-12-04T01:07:16;93984.00;;;-3.90
41940;BMP180;23057;48.554;14.454;2023-12-04T01:09:46;93978.00;;;-4.00
41940;BMP180;23057;48.554;14.454;2023-12-04T01:12:17;93977.00;;;-4.00
41940;BMP180;23057;48.554;14.454;2023-12-04T01:14:48;93980.00;;;-4.00
41940;BMP180;23057;48.554;14.454;2023-12-04T01:17:19;93983.00;;;-4.00
41940;BMP180;23057;48.554;14.454;2023-12-04T01:19:50;93977.00;;;-3.90
41940;BMP180;23057;48.554;14.454;2023-12-04T01:22:21;93983.00;;;-4.00
41940;BMP180;23057;48.554;14.454;2023-12-04T01:24:52;93987.00;;;-4.10
41940;BMP180;23057;48.554;14.454;2023-12-04T01:27:22;93972.00;;;-4.20
41940;BMP180;23057;48.554;14.454;2023-12-04T01:29:53;93979.00;;;-4.30
41940;BMP180;23057;48.554;14.454;2023-12-04T01:32:24;93969.00;;;-4.40
41940;BMP180;23057;48.554;14.454;2023-12-04T01:34:55;93965.00;;;-4.50
41940;BMP180;23057;48.554;14.454;2023-12-04T01:37:26;93970.00;;;-4.60
41940;BMP180;23057;48.554;14.454;2023-12-04T01:39:57;93966.00;;;-4.60
41940;BMP180;23057;48.554;14.454;2023-12-04T01:42:28;93961.00;;;-4.60
41940;BMP180;23057;48.554;14.454;2023-12-04T01:44:59;93948.00;;;-4.70
41940;BMP180;23057;48.554;14.454;2023-12-04T01:47:29;93945.00;;;-4.70
41940;BMP180;23057;48.554;14.454;2023-12-04T01:50:01;93947.00;;;-4.70
41940;BMP180;23057;48.554;14.454;2023-12-04T01:52:32;93945.00;;;-4.70
41940;BMP180;23057;48.554;14.454;2023-12-04T01:55:05;93936.00;;;-4.80
41940;BMP180;23057;48.554;14.454;2023-12-04T01:57:39;93941.00;;;-4.90
41940;BMP180;23057;48.554;14.454;2023-12-04T02:00:10;93943.00;;;-4.90
41940;BMP180;23057;48.554;14.454;2023-12-04T02:02:42;93928.00;;;-5.00
41940;BMP180;23057;48.554;14.454;2023-12-04T02:05:14;93942.00;;;-5.10
41940;BMP180;23057;48.554;14.454;2023-12-04T02:07:46;93934.00;;;-5.20
41940;BMP180;23057;48.554;14.454;2023-12-04T02:10:17;93931.00;;;-5.30
41940;BMP180;23057;48.554;14.454;2023-12-04T02:12:49;93928.00;;;-5.20
41940;BMP180;23057;48.554;14.454;2023-12-04T02:15:20;93933.00;;;-5.30
41940;BMP180;23057;48.554;14.454;2023-12-04T02:17:52;93910.00;;;-5.40
41940;BMP180;23057;48.554;14.454;2023-12-04T02:20:34;93912.00;;;-5.50
41940;BMP180;23057;48.554;14.454;2023-12-04T02:23:05;93915.00;;;-5.50
41940;BMP180;23057;48.554;14.454;2023-12-04T02:25:36;93914.00;;;-5.40
41940;BMP180;23057;48.554;14.454;2023-12-04T02:28:12;93913.00;;;-5.40
41940;BMP180;23057;48.554;14.454;2023-12-04T02:30:47;93909.00;;;-5.40
41940;BMP180;23057;48.554;14.454;2023-12-04T02:33:23;93902.00;;;-5.40
41940;BMP180;23057;48.554;14.454;2023-12-04T02:35:58;93896.00;;;-5.30
41940;BMP180;23057;48.554;14.454;2023-12-04T02:38:31;93891.00;;;-5.30
41940;BMP180;23057;48.554;14.454;2023-12-04T02:41:02;93891.00;;;-5.20
41940;BMP180;23057;48.554;14.454;2023-12-04T02:43:33;93874.00;;;-5.20
41940;BMP180;23057;48.554;14.454;2023-12-04T02:46:04;93878.00;;;-5.20
41940;BMP180;23057;48.554;14.454;2023-12-04T02:48:35;93878.00;;;-5.20
41940;BMP180;23057;48.554;14.454;2023-12-04T02:51:07;93876.00;;;-5.20
41940;BMP180;23057;48.554;14.454;2023-12-04T02:53:38;93876.00;;;-5.20
41940;BMP180;23057;48.554;14.454;2023-12-04T02:56:10;93866.00;;;-5.20
41940;BMP180;23057;48.554;14.454;2023-12-04T02:58:41;93874.00;;;-5.30
41940;BMP180;23057;48.554;14.454;2023-12-04T03:01:11;93871.00;;;-5.40
41940;BMP180;23057;48.554;14.454;2023-12-04T03:03:42;93852.00;;;-5.50
41940;BMP180;23057;48.554;14.454;2023-12-04T03:06:13;93848.00;;;-5.50
41940;BMP180;23057;48.554;14.454;2023-12-04T03:08:46;93844.00;;;-5.40
41940;BMP180;23057;48.554;14.454;2023-12-04T03:11:17;93840.00;;;-5.40
41940;BMP180;23057;48.554;14.454;2023-12-04T03:13:48;93838.00;;;-5.40
41940;BMP180;23057;48.554;14.454;2023-12-04T03:16:19;93842.00;;;-5.30
41940;BMP180;23057;48.554;14.454;2023-12-04T03:18:50;93837.00;;;-5.30
41940;BMP180;23057;48.554;14.454;2023-12-04T03:21:20;93844.00;;;-5.30
41940;BMP180;23057;48.554;14.454;2023-12-04T03:23:51;93828.00;;;-5.30
41940;BMP180;23057;48.554;14.454;2023-12-04T03:26:22;93824.00;;;-5.30
41940;BMP180;23057;48.554;14.454;2023-12-04T03:28:53;93826.00;;;-5.30
41940;BMP180;23057;48.554;14.454;2023-12-04T03:31:25;93816.00;;;-5.30
41940;BMP180;23057;48.554;14.454;2023-12-04T03:33:56;93821.00;;;-5.30
41940;BMP180;23057;48.554;14.454;2023-12-04T03:36:27;93819.00;;;-5.40
41940;BMP180;23057;48.554;14.454;2023-12-04T03:38:58;93805.00;;;-5.50
41940;BMP180;23057;48.554;14.454;2023-12-04T03:41:29;93814.00;;;-5.50
41940;BMP180;23057;48.554;14.454;2023-12-04T03:43:59;93818.00;;;-5.50
41940;BMP180;23057;48.554;14.454;2023-12-04T03:46:30;93815.00;;;-5.60
41940;BMP180;23057;48.554;14.454;2023-12-04T03:49:01;93806.00;;;-5.60
41940;BMP180;23057;48.554;14.454;2023-12-04T03:51:32;93797.00;;;-5.60
41940;BMP180;23057;48.554;14.454;2023-12-04T03:54:03;93795.00;;;-5.60
41940;BMP180;23057;48.554;14.454;2023-12-04T03:56:34;93798.00;;;-5.70
41940;BMP180;23057;48.554;14.454;2023-12-04T03:59:05;93785.00;;;-5.70
41940;BMP180;23057;48.554;14.454;2023-12-04T04:01:36;93784.00;;;-5.70
41940;BMP180;23057;48.554;14.454;2023-12-04T04:04:06;93788.00;;;-5.90
41940;BMP180;23057;48.554;14.454;2023-12-04T04:06:37;93785.00;;;-5.90
41940;BMP180;23057;48.554;14.454;2023-12-04T04:09:08;93792.00;;;-6.00
41940;BMP180;23057;48.554;14.454;2023-12-04T04:11:40;93786.00;;;-6.00
41940;BMP180;23057;48.554;14.454;2023-12-04T04:14:11;93787.00;;;-6.10
41940;BMP180;23057;48.554;14.454;2023-12-04T04:16:41;93786.00;;;-6.10
41940;BMP180;23057;48.554;14.454;2023-12-04T04:19:12;93781.00;;;-6.20
41940;BMP180;23057;48.554;14.454;2023-12-04T04:21:43;93779.00;;;-6.20
41940;BMP180;23057;48.554;14.454;2023-12-04T04:24:14;93775.00;;;-6.20
41940;BMP180;23057;48.554;14.454;2023-12-04T04:26:44;93768.00;;;-6.10
41940;BMP180;23057;48.554;14.454;2023-12-04T04:29:15;93779.00;;;-6.10
41940;BMP180;23057;48.554;14.454;2023-12-04T04:31:46;93778.00;;;-6.10
41940;BMP180;23057;48.554;14.454;2023-12-04T04:34:17;93774.00;;;-6.10
41940;BMP180;23057;48.554;14.454;2023-12-04T04:36:48;93767.00;;;-6.10
41940;BMP180;23057;48.554;14.454;2023-12-04T04:39:19;93754.00;;;-6.10
41940;BMP180;23057;48.554;14.454;2023-12-04T04:41:50;93748.00;;;-6.10
41940;BMP180;23057;48.554;14.454;2023-12-04T04:44:21;93756.00;;;-6.00
41940;BMP180;23057;48.554;14.454;2023-12-04T04:46:51;93752.00;;;-6.10
41940;BMP180;23057;48.554;14.454;2023-12-04T04:49:22;93753.00;;;-6.00
41940;BMP180;23057;48.554;14.454;2023-12-04T04:51:54;93747.00;;;-6.00
41940;BMP180;23057;48.554;14.454;2023-12-04T04:54:25;93750.00;;;-6.00
41940;BMP180;23057;48.554;14.454;2023-12-04T04:56:55;93746.00;;;-6.00
41940;BMP180;23057;48.554;14.454;2023-12-04T04:59:26;93737.00;;;-6.00
41940;BMP180;23057;48.554;14.454;2023-12-04T05:02:00;93747.00;;;-5.90
41940;BMP180;23057;48.554;14.454;2023-12-04T05:04:31;93743.00;;;-5.90
41940;BMP180;23057;48.554;14.454;2023-12-04T05:07:02;93735.00;;;-5.90
41940;BMP180;23057;48.554;14.454;2023-12-04T05:09:33;93738.00;;;-5.90
41940;BMP180;23057;48.554;14.454;2023-12-04T05:12:04;93730.00;;;-5.90
41940;BMP180;23057;48.554;14.454;2023-12-04T05:14:35;93729.00;;;-5.90
41940;BMP180;23057;48.554;14.454;2023-12-04T05:17:06;93725.00;;;-5.90
41940;BMP180;23057;48.554;14.454;2023-12-04T05:19:37;93731.00;;;-5.90
41940;BMP180;23057;48.554;14.454;2023-12-04T05:22:08;93730.00;;;-6.00
41940;BMP180;23057;48.554;14.454;2023-12-04T05:24:39;93720.00;;;-6.00
41940;BMP180;23057;48.554;14.454;2023-12-04T05:27:09;93716.00;;;-6.00
41940;BMP180;23057;48.554;14.454;2023-12-04T05:29:40;93719.00;;;-6.00
41940;BMP180;23057;48.554;14.454;2023-12-04T05:32:11;93717.00;;;-6.10
41940;BMP180;23057;48.554;14.454;2023-12-04T05:34:42;93710.00;;;-6.20
41940;BMP180;23057;48.554;14.454;2023-12-04T05:37:13;93724.00;;;-6.30
41940;BMP180;23057;48.554;14.454;2023-12-04T05:39:44;93707.00;;;-6.30
41940;BMP180;23057;48.554;14.454;2023-12-04T05:42:15;93710.00;;;-6.40
41940;BMP180;23057;48.554;14.454;2023-12-04T05:44:45;93707.00;;;-6.30
41940;BMP180;23057;48.554;14.454;2023-12-04T05:47:16;93695.00;;;-6.30
41940;BMP180;23057;48.554;14.454;2023-12-04T05:49:47;93701.00;;;-6.30
41940;BMP180;23057;48.554;14.454;2023-12-04T05:52:18;93703.00;;;-6.20
41940;BMP180;23057;48.554;14.454;2023-12-04T05:54:48;93694.00;;;-6.20
41940;BMP180;23057;48.554;14.454;2023-12-04T05:57:19;93692.00;;;-6.20
41940;BMP180;23057;48.554;14.454;2023-12-04T05:59:50;93698.00;;;-6.10
41940;BMP180;23057;48.554;14.454;2023-12-04T06:02:21;93701.00;;;-6.10
41940;BMP180;23057;48.554;14.454;2023-12-04T06:04:52;93690.00;;;-6.10
41940;BMP180;23057;48.554;14.454;2023-12-04T06:07:22;93688.00;;;-6.10
41940;BMP180;23057;48.554;14.454;2023-12-04T06:09:53;93681.00;;;-6.10
41940;BMP180;23057;48.554;14.454;2023-12-04T06:12:24;93679.00;;;-6.00
41940;BMP180;23057;48.554;14.454;2023-12-04T06:14:55;93674.00;;;-6.00
41940;BMP180;23057;48.554;14.454;2023-12-04T06:17:26;93668.00;;;-6.00
41940;BMP180;23057;48.554;14.454;2023-12-04T06:19:57;93671.00;;;-5.90
41940;BMP180;23057;48.554;14.454;2023-12-04T06:22:29;93652.00;;;-5.80
41940;BMP180;23057;48.554;14.454;2023-12-04T06:25:00;93660.00;;;-5.70
41940;BMP180;23057;48.554;14.454;2023-12-04T06:27:31;93658.00;;;-5.80
41940;BMP180;23057;48.554;14.454;2023-12-04T06:30:03;93658.00;;;-5.80
41940;BMP180;23057;48.554;14.454;2023-12-04T06:32:34;93651.00;;;-5.90
41940;BMP180;23057;48.554;14.454;2023-12-04T06:35:06;93643.00;;;-5.90
41940;BMP180;23057;48.554;14.454;2023-12-04T06:37:38;93649.00;;;-6.00
41940;BMP180;23057;48.554;14.454;2023-12-04T06:40:10;93640.00;;;-6.00
41940;BMP180;23057;48.554;14.454;2023-12-04T06:42:42;93636.00;;;-6.10
41940;BMP180;23057;48.554;14.454;2023-12-04T06:45:13;93646.00;;;-6.10
41940;BMP180;23057;48.554;14.454;2023-12-04T06:47:46;93658.00;;;-6.10
41940;BMP180;23057;48.554;14.454;2023-12-04T06:50:21;93643.00;;;-6.20
41940;BMP180;23057;48.554;14.454;2023-12-04T06:52:51;93654.00;;;-6.30
41940;BMP180;23057;48.554;14.454;2023-12-04T06:55:23;93654.00;;;-6.30
41940;BMP180;23057;48.554;14.454;2023-12-04T06:57:54;93646.00;;;-6.40
41940;BMP180;23057;48.554;14.454;2023-12-04T07:00:24;93631.00;;;-6.30
41940;BMP180;23057;48.554;14.454;2023-12-04T07:02:56;93631.00;;;-6.30
41940;BMP180;23057;48.554;14.454;2023-12-04T07:05:27;93641.00;;;-6.30
41940;BMP180;23057;48.554;14.454;2023-12-04T07:07:58;93631.00;;;-6.30
41940;BMP180;23057;48.554;14.454;2023-12-04T07:10:28;93636.00;;;-6.30
41940;BMP180;23057;48.554;14.454;2023-12-04T07:12:59;93624.00;;;-6.30
41940;BMP180;23057;48.554;14.454;2023-12-04T07:15:30;93625.00;;;-6.20
41940;BMP180;23057;48.554;14.454;2023-12-04T07:18:01;93624.00;;;-6.10
41940;BMP180;23057;48.554;14.454;2023-12-04T07:20:32;93624.00;;;-5.90
41940;BMP180;23057;48.554;14.454;2023-12-04T07:23:02;93624.00;;;-5.80
41940;BMP180;23057;48.554;14.454;2023-12-04T07:25:33;93616.00;;;-5.60
41940;BMP180;23057;48.554;14.454;2023-12-04T07:28:04;93616.00;;;-5.40
41940;BMP180;23057;48.554;14.454;2023-12-04T07:30:35;93603.00;;;-5.20
41940;BMP180;23057;48.554;14.454;2023-12-04T07:33:06;93608.00;;;-5.00
41940;BMP180;23057;48.554;14.454;2023-12-04T07:35:37;93604.00;;;-4.80
41940;BMP180;23057;48.554;14.454;2023-12-04T07:38:07;93600.00;;;-4.60
41940;BMP180;23057;48.554;14.454;2023-12-04T07:40:38;93595.00;;;-4.40
41940;BMP180;23057;48.554;14.454;2023-12-04T07:43:09;93588.00;;;-4.30
41940;BMP180;23057;48.554;14.454;2023-12-04T07:45:41;93576.00;;;-4.30
41940;BMP180;23057;48.554;14.454;2023-12-04T07:48:12;93568.00;;;-4.40
41940;BMP180;23057;48.554;14.454;2023-12-04T07:50:43;93582.00;;;-4.40
41940;BMP180;23057;48.554;14.454;2023-12-04T07:53:14;93564.00;;;-4.50
41940;BMP180;23057;48.554;14.454;2023-12-04T07:55:45;93567.00;;;-4.60
41940;BMP180;23057;48.554;14.454;2023-12-04T07:58:18;93576.00;;;-4.60
41940;BMP180;23057;48.554;14.454;2023-12-04T08:00:48;93564.00;;;-4.60
41940;BMP180;23057;48.554;14.454;2023-12-04T08:03:20;93558.00;;;-4.70
41940;BMP180;23057;48.554;14.454;2023-12-04T08:05:51;93566.00;;;-4.70
41940;BMP180;23057;48.554;14.454;2023-12-04T08:08:23;93563.00;;;-4.70
41940;BMP180;23057;48.554;14.454;2023-12-04T08:10:53;93555.00;;;-4.80
41940;BMP180;23057;48.554;14.454;2023-12-04T08:13:24;93548.00;;;-4.90
41940;BMP180;23057;48.554;14.454;2023-12-04T08:15:55;93535.00;;;-4.90
41940;BMP180;23057;48.554;14.454;2023-12-04T08:18:26;93529.00;;;-4.90
41940;BMP180;23057;48.554;14.454;2023-12-04T08:21:00;93524.00;;;-4.90
41940;BMP180;23057;48.554;14.454;2023-12-04T08:23:31;93526.00;;;-4.80
41940;BMP180;23057;48.554;14.454;2023-12-04T08:26:02;93518.00;;;-4.80
41940;BMP180;23057;48.554;14.454;2023-12-04T08:28:34;93520.00;;;-4.70
41940;BMP180;23057;48.554;14.454;2023-12-04T08:31:06;93523.00;;;-4.60
41940;BMP180;23057;48.554;14.454;2023-12-04T08:33:38;93506.00;;;-4.50
41940;BMP180;23057;48.554;14.454;2023-12-04T08:36:11;93496.00;;;-4.40
41940;BMP180;23057;48.554;14.454;2023-12-04T08:38:43;93491.00;;;-4.30
41940;BMP180;23057;48.554;14.454;2023-12-04T08:41:13;93497.00;;;-4.20
41940;BMP180;23057;48.554;14.454;2023-12-04T08:43:45;93490.00;;;-4.10
41940;BMP180;23057;48.554;14.454;2023-12-04T08:46:16;93489.00;;;-4.00
41940;BMP180;23057;48.554;14.454;2023-12-04T08:48:47;93483.00;;;-3.80
41940;BMP180;23057;48.554;14.454;2023-12-04T08:51:18;93481.00;;;-3.70
41940;BMP180;23057;48.554;14.454;2023-12-04T08:53:49;93481.00;;;-3.70
41940;BMP180;23057;48.554;14.454;2023-12-04T08:56:20;93478.00;;;-3.60
41940;BMP180;23057;48.554;14.454;2023-12-04T08:58:51;93475.00;;;-3.60
41940;BMP180;23057;48.554;14.454;2023-12-04T09:01:22;93476.00;;;-3.50
41940;BMP180;23057;48.554;14.454;2023-12-04T09:03:54;93469.00;;;-3.50
41940;BMP180;23057;48.554;14.454;2023-12-04T09:06:26;93472.00;;;-3.40
41940;BMP180;23057;48.554;14.454;2023-12-04T09:08:57;93474.00;;;-3.40
41940;BMP180;23057;48.554;14.454;2023-12-04T09:11:28;93470.00;;;-3.30
41940;BMP180;23057;48.554;14.454;2023-12-04T09:13:59;93466.00;;;-3.30
41940;BMP180;23057;48.554;14.454;2023-12-04T09:16:30;93457.00;;;-3.20
41940;BMP180;23057;48.554;14.454;2023-12-04T09:19:00;93453.00;;;-3.20
41940;BMP180;23057;48.554;14.454;2023-12-04T09:21:31;93452.00;;;-3.10
41940;BMP180;23057;48.554;14.454;2023-12-04T09:24:02;93455.00;;;-3.00
41940;BMP180;23057;48.554;14.454;2023-12-04T09:26:33;93447.00;;;-2.80
41940;BMP180;23057;48.554;14.454;2023-12-04T09:29:04;93445.00;;;-2.70
41940;BMP180;23057;48.554;14.454;2023-12-04T09:31:35;93445.00;;;-2.50
41940;BMP180;23057;48.554;14.454;2023-12-04T09:34:06;93441.00;;;-2.30
41940;BMP180;23057;48.554;14.454;2023-12-04T09:36:37;93430.00;;;-2.20
41940;BMP180;23057;48.554;14.454;2023-12-04T09:39:07;93438.00;;;-2.10
41940;BMP180;23057;48.554;14.454;2023-12-04T09:41:41;93434.00;;;-2.10
41940;BMP180;23057;48.554;14.454;2023-12-04T09:44:13;93436.00;;;-2.10
41940;BMP180;23057;48.554;14.454;2023-12-04T09:46:45;93440.00;;;-2.10
41940;BMP180;23057;48.554;14.454;2023-12-04T09:49:19;93436.00;;;-2.10
41940;BMP180;23057;48.554;14.454;2023-12-04T09:51:50;93434.00;;;-2.10
41940;BMP180;23057;48.554;14.454;2023-12-04T09:54:21;93438.00;;;-2.10
41940;BMP180;23057;48.554;14.454;2023-12-04T09:56:52;93430.00;;;-2.10
41940;BMP180;23057;48.554;14.454;2023-12-04T09:59:24;93426.00;;;-2.00
41940;BMP180;23057;48.554;14.454;2023-12-04T10:02:00;93414.00;;;-1.60
41940;BMP180;23057;48.554;14.454;2023-12-04T10:04:32;93419.00;;;-1.30
41940;BMP180;23057;48.554;14.454;2023-12-04T10:07:04;93414.00;;;-1.10
41940;BMP180;23057;48.554;14.454;2023-12-04T10:09:35;93411.00;;;-1.00
41940;BMP180;23057;48.554;14.454;2023-12-04T10:12:06;93397.00;;;-0.90
41940;BMP180;23057;48.554;14.454;2023-12-04T10:14:38;93392.00;;;-0.60
41940;BMP180;23057;48.554;14.454;2023-12-04T10:17:16;93389.00;;;-0.30
41940;BMP180;23057;48.554;14.454;2023-12-04T10:20:11;93388.00;;;0.00
41940;BMP180;23057;48.554;14.454;2023-12-04T10:23:00;93377.00;;;0.20
41940;BMP180;23057;48.554;14.454;2023-12-04T10:25:32;93363.00;;;0.50
41940;BMP180;23057;48.554;14.454;2023-12-04T10:28:12;93359.00;;;0.70
41940;BMP180;23057;48.554;14.454;2023-12-04T10:30:43;93356.00;;;0.90
41940;BMP180;23057;48.554;14.454;2023-12-04T10:33:15;93342.00;;;0.90
41940;BMP180;23057;48.554;14.454;2023-12-04T10:35:46;93336.00;;;1.10
41940;BMP180;23057;48.554;14.454;2023-12-04T10:38:18;93330.00;;;1.30
41940;BMP180;23057;48.554;14.454;2023-12-04T10:40:49;93337.00;;;1.50
41940;BMP180;23057;48.554;14.454;2023-12-04T10:43:22;93320.00;;;1.70
41940;BMP180;23057;48.554;14.454;2023-12-04T10:45:54;93329.00;;;1.90
41940;BMP180;23057;48.554;14.454;2023-12-04T10:48:25;93315.00;;;2.10
41940;BMP180;23057;48.554;14.454;2023-12-04T10:50:56;93310.00;;;2.20
41940;BMP180;23057;48.554;14.454;2023-12-04T10:53:28;93298.00;;;2.40
41940;BMP180;23057;48.554;14.454;2023-12-04T10:56:00;93291.00;;;2.50
41940;BMP180;23057;48.554;14.454;2023-12-04T10:58:34;93286.00;;;2.60
41940;BMP180;23057;48.554;14.454;2023-12-04T11:01:10;93283.00;;;2.60
41940;BMP180;23057;48.554;14.454;2023-12-04T11:03:52;93279.00;;;2.70
41940;BMP180;23057;48.554;14.454;2023-12-04T11:06:27;93270.00;;;2.70
41940;BMP180;23057;48.554;14.454;2023-12-04T11:09:00;93259.00;;;2.70
41940;BMP180;23057;48.554;14.454;2023-12-04T11:11:36;93256.00;;;2.80
41940;BMP180;23057;48.554;14.454;2023-12-04T11:14:19;93251.00;;;2.80
41940;BMP180;23057;48.554;14.454;2023-12-04T11:17:04;93246.00;;;2.70
41940;BMP180;23057;48.554;14.454;2023-12-04T11:20:02;93250.00;;;2.60
41940;BMP180;23057;48.554;14.454;2023-12-04T11:22:39;93243.00;;;2.50
41940;BMP180;23057;48.554;14.454;2023-12-04T11:25:14;93229.00;;;2.40
41940;BMP180;23057;48.554;14.454;2023-12-04T11:27:45;93229.00;;;2.40
41940;BMP180;23057;48.554;14.454;2023-12-04T11:30:16;93216.00;;;2.40
41940;BMP180;23057;48.554;14.454;2023-12-04T11:32:50;93209.00;;;2.40
41940;BMP180;23057;48.554;14.454;2023-12-04T11:35:25;93214.00;;;2.50
41940;BMP180;23057;48.554;14.454;2023-12-04T11:37:56;93206.00;;;2.40
41940;BMP180;23057;48.554;14.454;2023-12-04T11:40:27;93201.00;;;2.50
41940;BMP180;23057;48.554;14.454;2023-12-04T11:42:59;93193.00;;;2.50
41940;BMP180;23057;48.554;14.454;2023-12-04T11:45:32;93194.00;;;2.60
41940;BMP180;23057;48.554;14.454;2023-12-04T11:48:05;93181.00;;;2.70
41940;BMP180;23057;48.554;14.454;2023-12-04T11:50:38;93192.00;;;2.90
41940;BMP180;23057;48.554;14.454;2023-12-04T11:53:11;93167.00;;;3.00
41940;BMP180;23057;48.554;14.454;2023-12-04T11:55:46;93178.00;;;3.20
41940;BMP180;23057;48.554;14.454;2023-12-04T11:58:17;93177.00;;;3.40
41940;BMP180;23057;48.554;14.454;2023-12-04T12:00:47;93186.00;;;3.50
41940;BMP180;23057;48.554;14.454;2023-12-04T12:03:21;93180.00;;;3.50
41940;BMP180;23057;48.554;14.454;2023-12-04T12:05:52;93170.00;;;3.50
41940;BMP180;23057;48.554;14.454;2023-12-04T12:08:23;93172.00;;;3.50
41940;BMP180;23057;48.554;14.454;2023-12-04T12:10:55;93161.00;;;3.50
41940;BMP180;23057;48.554;14.454;2023-12-04T12:13:27;93157.00;;;3.50
41940;BMP180;23057;48.554;14.454;2023-12-04T12:15:58;93158.00;;;3.50
41940;BMP180;23057;48.554;14.454;2023-12-04T12:18:29;93154.00;;;3.50
41940;BMP180;23057;48.554;14.454;2023-12-04T12:21:00;93144.00;;;3.50
41940;BMP180;23057;48.554;14.454;2023-12-04T12:23:33;93143.00;;;3.50
41940;BMP180;23057;48.554;14.454;2023-12-04T12:26:04;93132.00;;;3.40
41940;BMP180;23057;48.554;14.454;2023-12-04T12:28:35;93138.00;;;3.30
41940;BMP180;23057;48.554;14.454;2023-12-04T12:31:06;93139.00;;;3.10
41940;BMP180;23057;48.554;14.454;2023-12-04T12:33:37;93120.00;;;3.00
41940;BMP180;23057;48.554;14.454;2023-12-04T12:36:09;93121.00;;;2.90
41940;BMP180;23057;48.554;14.454;2023-12-04T12:38:40;93121.00;;;2.80
41940;BMP180;23057;48.554;14.454;2023-12-04T12:41:12;93116.00;;;2.70
41940;BMP180;23057;48.554;14.454;2023-12-04T12:43:43;93118.00;;;2.70
41940;BMP180;23057;48.554;14.454;2023-12-04T12:46:14;93113.00;;;2.60
41940;BMP180;23057;48.554;14.454;2023-12-04T12:48:47;93109.00;;;2.50
41940;BMP180;23057;48.554;14.454;2023-12-04T12:51:18;93109.00;;;2.40
41940;BMP180;23057;48.554;14.454;2023-12-04T12:53:49;93102.00;;;2.30
41940;BMP180;23057;48.554;14.454;2023-12-04T12:56:20;93100.00;;;2.20
41940;BMP180;23057;48.554;14.454;2023-12-04T12:58:53;93091.00;;;2.10
41940;BMP180;23057;48.554;14.454;2023-12-04T13:01:24;93098.00;;;2.00
41940;BMP180;23057;48.554;14.454;2023-12-04T13:03:58;93090.00;;;2.00
41940;BMP180;23057;48.554;14.454;2023-12-04T13:06:31;93079.00;;;2.10
41940;BMP180;23057;48.554;14.454;2023-12-04T13:09:02;93079.00;;;2.10
41940;BMP180;23057;48.554;14.454;2023-12-04T13:11:33;93076.00;;;2.10
41940;BMP180;23057;48.554;14.454;2023-12-04T13:14:04;93072.00;;;2.10
41940;BMP180;23057;48.554;14.454;2023-12-04T13:16:35;93067.00;;;2.20
41940;BMP180;23057;48.554;14.454;2023-12-04T13:19:06;93071.00;;;2.20
41940;BMP180;23057;48.554;14.454;2023-12-04T13:21:36;93072.00;;;2.30
41940;BMP180;23057;48.554;14.454;2023-12-04T13:24:08;93075.00;;;2.30
41940;BMP180;23057;48.554;14.454;2023-12-04T13:26:39;93071.00;;;2.30
41940;BMP180;23057;48.554;14.454;2023-12-04T13:29:11;93071.00;;;2.40
41940;BMP180;23057;48.554;14.454;2023-12-04T13:31:45;93066.00;;;2.50
41940;BMP180;23057;48.554;14.454;2023-12-04T13:34:20;93070.00;;;2.60
41940;BMP180;23057;48.554;14.454;2023-12-04T13:36:51;93075.00;;;2.60
41940;BMP180;23057;48.554;14.454;2023-12-04T13:39:21;93080.00;;;2.70
41940;BMP180;23057;48.554;14.454;2023-12-04T13:42:17;93084.00;;;2.70
41940;BMP180;23057;48.554;14.454;2023-12-04T13:45:07;93068.00;;;2.60
41940;BMP180;23057;48.554;14.454;2023-12-04T13:47:39;93077.00;;;2.60
41940;BMP180;23057;48.554;14.454;2023-12-04T13:50:11;93082.00;;;2.60
41940;BMP180;23057;48.554;14.454;2023-12-04T13:52:41;93080.00;;;2.60
41940;BMP180;23057;48.554;14.454;2023-12-04T13:55:13;93085.00;;;2.60
41940;BMP180;23057;48.554;14.454;2023-12-04T13:57:51;93097.00;;;2.60
41940;BMP180;23057;48.554;14.454;2023-12-04T14:00:30;93099.00;;;2.50
41940;BMP180;23057;48.554;14.454;2023-12-04T14:03:02;93095.00;;;2.50
41940;BMP180;23057;48.554;14.454;2023-12-04T14:05:37;93098.00;;;2.50
41940;BMP180;23057;48.554;14.454;2023-12-04T14:08:08;93101.00;;;2.50
41940;BMP180;23057;48.554;14.454;2023-12-04T14:10:41;93106.00;;;2.50
41940;BMP180;23057;48.554;14.454;2023-12-04T14:13:12;93094.00;;;2.50
41940;BMP180;23057;48.554;14.454;2023-12-04T14:15:43;93099.00;;;2.50
41940;BMP180;23057;48.554;14.454;2023-12-04T14:18:14;93094.00;;;2.50
41940;BMP180;23057;48.554;14.454;2023-12-04T14:20:45;93095.00;;;2.50
41940;BMP180;23057;48.554;14.454;2023-12-04T14:23:16;93090.00;;;2.50
41940;BMP180;23057;48.554;14.454;2023-12-04T14:25:49;93093.00;;;2.50